Time;durP1;ratioP1;P1;durP2;ratioP2;P2;SDS_P1;SDS_P2;PMS_P1;PMS_P2;Temp;Humidity;BMP_temperature;BMP_pressure;BME280_temperature;BME280_humidity;BME280_pressure;Samples;Min_cycle;Max_cycle;Signal;HPM_P1;HPM_P2
2022/05/22 00:01:14;;;;;;;11.10;3.47;;;12.00;99.90;;;;;;5113819;28;20650;-63
2022/05/22 00:03:39;;;;;;;10.77;2.70;;;12.00;99.90;;;;;;5113767;28;20160;-63
2022/05/22 00:06:05;;;;;;;9.47;3.10;;;11.90;99.90;;;;;;5113806;28;20190;-63
2022/05/22 00:08:31;;;;;;;7.57;2.40;;;11.90;99.90;;;;;;5113700;28;20707;-63
2022/05/22 00:10:57;;;;;;;8.10;2.70;;;11.90;99.90;;;;;;5113499;28;20202;-63
2022/05/22 00:13:23;;;;;;;12.57;2.60;;;11.90;99.90;;;;;;5113456;28;20171;-63
2022/05/22 00:18:33;;;;;;;6.47;2.60;;;11.90;99.90;;;;;;5113394;28;20253;-63
2022/05/22 00:20:58;;;;;;;8.53;2.90;;;11.90;99.90;;;;;;5113250;28;20168;-63
2022/05/22 00:23:24;;;;;;;8.73;2.67;;;11.90;99.90;;;;;;5113204;28;20171;-63
2022/05/22 00:25:50;;;;;;;8.13;2.60;;;11.80;99.90;;;;;;5113154;28;20179;-63
2022/05/22 00:28:16;;;;;;;8.13;2.43;;;11.70;99.90;;;;;;5112556;27;20603;-63
2022/05/22 00:30:41;;;;;;;7.67;2.67;;;11.70;99.90;;;;;;5113138;28;20662;-63
2022/05/22 00:33:07;;;;;;;7.20;2.40;;;11.70;99.90;;;;;;5113237;28;20254;-63
2022/05/22 00:35:33;;;;;;;8.33;2.70;;;11.70;99.90;;;;;;5111759;28;20626;-63
2022/05/22 00:37:59;;;;;;;8.50;2.57;;;11.70;99.90;;;;;;5113055;28;20221;-63
2022/05/22 00:40:24;;;;;;;5.83;2.30;;;11.70;99.90;;;;;;5113080;28;20564;-62
2022/05/22 00:42:50;;;;;;;12.37;2.60;;;11.70;99.90;;;;;;5112978;28;20610;-63
2022/05/22 00:45:19;;;;;;;10.23;2.63;;;11.70;99.90;;;;;;5111517;28;20633;-64
2022/05/22 00:47:44;;;;;;;9.47;3.00;;;11.70;99.90;;;;;;5112748;28;20175;-63
2022/05/22 00:50:11;;;;;;;10.70;2.47;;;11.70;99.90;;;;;;5112590;28;20230;-64
2022/05/22 00:52:45;;;;;;;10.50;2.50;;;11.70;99.90;;;;;;5112762;28;20287;-63
2022/05/22 00:55:17;;;;;;;9.33;2.37;;;11.70;99.90;;;;;;5112690;28;20159;-63
2022/05/22 00:57:56;;;;;;;10.00;2.13;;;11.60;99.90;;;;;;5112698;28;20179;-63
2022/05/22 01:00:26;;;;;;;4.40;2.07;;;11.50;99.90;;;;;;5112534;28;20187;-62
2022/05/22 01:05:40;;;;;;;10.27;2.23;;;11.50;99.90;;;;;;5112517;28;20545;-62
2022/05/22 01:08:06;;;;;;;11.63;2.40;;;11.50;99.90;;;;;;5112490;28;20174;-63
2022/05/22 01:10:44;;;;;;;8.53;2.50;;;11.50;99.90;;;;;;5111077;28;20195;-63
2022/05/22 01:13:12;;;;;;;9.33;1.97;;;11.50;99.90;;;;;;5111063;28;20174;-63
2022/05/22 01:15:38;;;;;;;13.03;2.10;;;11.50;99.90;;;;;;5112300;28;20172;-63
2022/05/22 01:18:04;;;;;;;8.53;2.23;;;11.60;99.90;;;;;;5112225;28;20542;-63
2022/05/22 01:20:30;;;;;;;5.03;1.80;;;11.60;99.90;;;;;;5112142;28;20191;-62
2022/05/22 01:22:55;;;;;;;5.70;1.63;;;11.70;99.90;;;;;;5112269;28;20339;-62
2022/05/22 01:25:21;;;;;;;7.17;1.33;;;11.70;99.90;;;;;;5112192;28;20179;-64
2022/05/22 01:27:47;;;;;;;5.07;1.33;;;11.70;99.90;;;;;;5112061;28;20532;-63
2022/05/22 01:30:17;;;;;;;10.83;1.77;;;11.80;99.90;;;;;;5112017;28;20206;-63
2022/05/22 01:32:46;;;;;;;7.90;2.07;;;11.90;99.90;;;;;;5111927;28;20257;-63
2022/05/22 01:35:15;;;;;;;8.43;1.73;;;11.90;99.90;;;;;;5112148;27;20246;-63
2022/05/22 01:37:41;;;;;;;7.93;2.20;;;11.90;99.90;;;;;;5112128;28;20283;-64
2022/05/22 01:40:09;;;;;;;9.03;1.77;;;11.90;99.90;;;;;;5111782;28;20171;-64
2022/05/22 01:42:35;;;;;;;9.60;1.60;;;11.90;99.90;;;;;;5111880;28;20191;-64
2022/05/22 01:45:01;;;;;;;5.20;1.43;;;11.90;99.90;;;;;;5111741;28;20275;-64
2022/05/22 01:47:27;;;;;;;7.23;2.03;;;11.90;99.90;;;;;;5111749;28;20634;-64
2022/05/22 01:49:54;;;;;;;5.33;1.53;;;11.80;99.90;;;;;;5111679;28;20179;-63
2022/05/22 01:52:20;;;;;;;10.50;1.50;;;11.70;99.90;;;;;;5111599;28;20668;-64
2022/05/22 01:54:46;;;;;;;6.03;1.70;;;11.70;99.90;;;;;;5111580;28;20195;-64
2022/05/22 01:57:11;;;;;;;7.23;1.50;;;11.70;99.90;;;;;;5111643;28;20259;-63
2022/05/22 01:59:37;;;;;;;8.23;1.70;;;11.60;99.90;;;;;;5111566;28;20191;-63
2022/05/22 02:02:03;;;;;;;9.97;2.00;;;11.60;99.90;;;;;;5111471;28;20181;-63
2022/05/22 02:04:29;;;;;;;6.50;1.90;;;11.50;99.90;;;;;;5111563;28;20991;-64
2022/05/22 02:09:39;;;;;;;8.80;1.70;;;11.40;99.90;;;;;;5111530;28;20209;-64
2022/05/22 02:12:05;;;;;;;8.70;1.83;;;11.40;99.90;;;;;;5110044;28;20219;-64
2022/05/22 02:14:30;;;;;;;9.63;1.87;;;11.40;99.90;;;;;;5111374;28;20633;-63
2022/05/22 02:16:56;;;;;;;8.07;2.10;;;11.50;99.90;;;;;;5111322;28;20175;-63
2022/05/22 02:19:22;;;;;;;8.40;1.70;;;11.50;99.90;;;;;;5111433;28;20167;-65
2022/05/22 02:21:47;;;;;;;5.37;1.87;;;11.40;99.90;;;;;;5111254;28;20689;-63
2022/05/22 02:24:13;;;;;;;5.93;1.47;;;11.40;99.90;;;;;;5111272;28;20262;-63
2022/05/22 02:26:39;;;;;;;6.80;2.00;;;11.40;99.90;;;;;;5111229;28;20217;-63
2022/05/22 02:29:05;;;;;;;6.87;1.80;;;11.30;99.90;;;;;;5111312;28;20167;-64
2022/05/22 02:31:31;;;;;;;11.93;2.13;;;11.30;99.90;;;;;;5111192;28;20213;-64
2022/05/22 02:33:56;;;;;;;8.73;1.90;;;11.20;99.90;;;;;;5111368;28;20702;-64
2022/05/22 02:36:22;;;;;;;8.93;2.13;;;11.20;99.90;;;;;;5111330;28;20171;-64
2022/05/22 02:38:49;;;;;;;8.00;1.83;;;11.20;99.90;;;;;;5111165;28;20506;-64
2022/05/22 02:41:16;;;;;;;7.60;1.77;;;11.20;99.90;;;;;;5111124;28;20660;-63
2022/05/22 02:43:43;;;;;;;7.17;1.80;;;11.20;99.90;;;;;;5111126;28;20640;-63
2022/05/22 02:46:14;;;;;;;11.03;1.97;;;11.10;99.90;;;;;;5111099;28;20639;-64
2022/05/22 02:48:40;;;;;;;8.27;1.90;;;11.10;99.90;;;;;;5111286;28;20186;-65
2022/05/22 02:51:09;;;;;;;8.93;1.97;;;11.10;99.90;;;;;;5112432;28;20275;-62
2022/05/22 02:53:34;;;;;;;6.33;1.53;;;11.10;99.90;;;;;;5115164;28;20250;-61
2022/05/22 02:56:15;;;;;;;9.80;2.07;;;11.00;99.90;;;;;;5114911;28;20275;-62
2022/05/22 02:58:41;;;;;;;6.77;1.83;;;11.10;99.90;;;;;;5115165;28;20198;-63
2022/05/22 03:01:07;;;;;;;8.77;1.90;;;11.00;99.90;;;;;;5114946;28;20163;-63
2022/05/22 03:03:33;;;;;;;3.67;1.60;;;11.00;99.90;;;;;;5114945;28;20591;-63
2022/05/22 03:08:43;;;;;;;11.20;1.90;;;10.80;99.90;;;;;;5115336;28;20270;-64
2022/05/22 03:11:09;;;;;;;6.27;1.90;;;10.80;99.90;;;;;;5113478;28;20297;-64
2022/05/22 03:13:34;;;;;;;8.07;1.90;;;10.80;99.90;;;;;;5114758;28;20180;-63
2022/05/22 03:16:00;;;;;;;3.87;1.40;;;10.80;99.90;;;;;;5113479;28;20183;-65
2022/05/22 03:18:26;;;;;;;5.87;1.60;;;10.70;99.90;;;;;;5114837;28;20174;-64
2022/05/22 03:20:52;;;;;;;6.37;1.83;;;10.70;99.90;;;;;;5114740;28;20186;-64
2022/05/22 03:23:18;;;;;;;5.63;1.40;;;10.70;99.90;;;;;;5114612;28;20168;-64
2022/05/22 03:25:48;;;;;;;9.77;2.10;;;10.60;99.90;;;;;;5114629;28;20168;-64
2022/05/22 03:28:15;;;;;;;9.60;2.10;;;10.60;99.90;;;;;;5114593;28;20173;-64
2022/05/22 03:30:40;;;;;;;5.60;1.90;;;10.50;99.90;;;;;;5114360;28;20665;-63
2022/05/22 03:33:06;;;;;;;5.37;1.53;;;10.50;99.90;;;;;;5114637;28;20220;-64
2022/05/22 03:35:32;;;;;;;7.27;1.93;;;10.50;99.90;;;;;;5114430;28;20536;-64
2022/05/22 03:37:58;;;;;;;10.80;2.20;;;10.50;99.90;;;;;;5114448;28;20254;-64
2022/05/22 03:40:24;;;;;;;9.47;2.23;;;10.50;99.90;;;;;;5114302;28;20261;-64
2022/05/22 03:42:50;;;;;;;6.90;2.57;;;10.50;99.90;;;;;;5114373;28;20228;-64
2022/05/22 03:45:15;;;;;;;6.27;1.70;;;10.60;99.90;;;;;;5114112;28;20565;-64
2022/05/22 03:47:41;;;;;;;4.53;1.80;;;10.60;99.90;;;;;;5113960;28;20198;-64
2022/05/22 03:50:09;;;;;;;10.63;2.10;;;10.60;99.90;;;;;;5113608;28;20214;-64
2022/05/22 03:52:38;;;;;;;10.73;2.37;;;10.60;99.90;;;;;;5114131;28;20187;-63
2022/05/22 03:55:06;;;;;;;5.27;1.80;;;10.50;99.90;;;;;;5113983;28;20167;-64
2022/05/22 03:57:32;;;;;;;7.73;2.20;;;10.50;99.90;;;;;;5113905;27;20175;-64
2022/05/22 03:59:57;;;;;;;9.50;2.10;;;10.40;99.90;;;;;;5113893;28;20252;-65
2022/05/22 04:02:23;;;;;;;8.10;1.83;;;10.40;99.90;;;;;;5112508;28;20515;-64
2022/05/22 04:04:49;;;;;;;5.70;2.13;;;10.40;99.90;;;;;;5113822;28;20291;-64
2022/05/22 04:07:15;;;;;;;4.40;1.80;;;10.50;99.90;;;;;;5113825;28;20193;-64
2022/05/22 04:09:42;;;;;;;8.60;2.17;;;10.40;99.90;;;;;;5113746;28;20216;-64
2022/05/22 04:12:09;;;;;;;6.87;1.70;;;10.30;99.90;;;;;;5113616;28;20211;-64
2022/05/22 04:14:35;;;;;;;12.83;2.20;;;10.30;99.90;;;;;;5113628;28;20199;-64
2022/05/22 04:17:00;;;;;;;6.27;1.90;;;10.30;99.90;;;;;;5113680;28;20664;-64
2022/05/22 04:19:26;;;;;;;7.63;1.80;;;10.30;99.90;;;;;;5113497;28;20183;-64
2022/05/22 04:21:52;;;;;;;3.93;1.53;;;10.30;99.90;;;;;;5113537;28;20167;-64
2022/05/22 04:27:03;;;;;;;6.67;1.80;;;10.20;99.90;;;;;;5113486;28;20213;-64
2022/05/22 04:29:31;;;;;;;5.90;1.80;;;10.20;99.90;;;;;;5113378;28;20254;-64
2022/05/22 04:31:57;;;;;;;10.63;1.80;;;10.20;99.90;;;;;;5113665;28;20211;-65
2022/05/22 04:34:22;;;;;;;6.83;1.90;;;10.30;99.90;;;;;;5113305;28;20185;-64
2022/05/22 04:36:48;;;;;;;6.57;1.77;;;10.30;99.90;;;;;;5113144;28;20590;-64
2022/05/22 04:39:14;;;;;;;8.83;1.77;;;10.30;99.90;;;;;;5113098;28;20198;-64
2022/05/22 04:41:39;;;;;;;3.93;1.43;;;10.30;99.90;;;;;;5113178;28;20503;-64
2022/05/22 04:44:05;;;;;;;7.40;1.77;;;10.30;99.90;;;;;;5112992;28;20164;-64
2022/05/22 04:46:31;;;;;;;5.80;2.03;;;10.30;99.90;;;;;;5111767;28;20167;-65
2022/05/22 04:48:57;;;;;;;6.23;1.90;;;10.20;99.90;;;;;;5113142;28;20171;-64
2022/05/22 04:51:22;;;;;;;4.23;1.70;;;10.30;99.90;;;;;;5112661;28;20693;-64
2022/05/22 04:53:49;;;;;;;6.77;1.80;;;10.20;99.90;;;;;;5112801;28;20171;-64
2022/05/22 04:59:38;;;;;;;6.90;1.67;;;10.30;99.90;;;;;;5042886;23;20240;-64
2022/05/22 05:02:04;;;;;;;11.37;1.83;;;10.30;99.90;;;;;;5052082;28;20318;-64
2022/05/22 05:04:30;;;;;;;6.30;2.10;;;10.30;99.90;;;;;;5051995;28;20260;-63
2022/05/22 05:06:56;;;;;;;9.17;2.30;;;10.40;99.90;;;;;;5052071;28;20173;-64
2022/05/22 05:09:22;;;;;;;6.97;1.73;;;10.40;99.90;;;;;;5051932;28;20165;-64
2022/05/22 05:11:48;;;;;;;7.70;1.80;;;10.40;99.90;;;;;;5051728;28;20220;-64
2022/05/22 05:14:14;;;;;;;8.47;2.20;;;10.40;99.90;;;;;;5051432;28;20244;-64
2022/05/22 05:16:39;;;;;;;8.70;1.87;;;10.40;99.90;;;;;;5051817;28;20223;-64
2022/05/22 05:19:05;;;;;;;8.67;2.00;;;10.40;99.90;;;;;;5051777;28;20607;-63
2022/05/22 05:21:31;;;;;;;8.43;2.30;;;10.50;99.90;;;;;;5051745;28;20256;-64
2022/05/22 05:23:57;;;;;;;9.70;2.10;;;10.40;99.90;;;;;;5051626;28;20506;-63
2022/05/22 05:26:24;;;;;;;12.93;3.00;;;10.50;99.90;;;;;;5051549;28;20242;-63
2022/05/22 05:28:50;;;;;;;6.83;1.90;;;10.70;99.90;;;;;;5051536;28;20166;-64
2022/05/22 05:31:15;;;;;;;11.10;1.90;;;10.80;99.90;;;;;;5051465;28;20231;-63
2022/05/22 05:33:41;;;;;;;4.83;2.23;;;10.90;99.90;;;;;;5051548;28;20169;-62
2022/05/22 05:36:11;;;;;;;8.10;2.53;;;11.00;99.90;;;;;;5051507;28;20688;-63
2022/05/22 05:38:37;;;;;;;6.63;2.07;;;11.10;99.90;;;;;;5051240;28;20203;-63
2022/05/22 05:41:03;;;;;;;8.17;2.20;;;11.00;99.90;;;;;;5051298;28;20244;-64
2022/05/22 05:43:29;;;;;;;6.00;2.40;;;11.30;99.90;;;;;;5051284;28;20252;-64
2022/05/22 05:45:55;;;;;;;4.67;1.77;;;11.30;99.90;;;;;;5051195;28;20173;-63
2022/05/22 05:48:21;;;;;;;6.27;2.00;;;11.40;99.90;;;;;;5033274;28;20180;-63
2022/05/22 05:50:47;;;;;;;8.60;2.37;;;11.40;99.90;;;;;;5051119;28;20236;-63
2022/05/22 05:53:13;;;;;;;6.50;2.03;;;11.50;99.90;;;;;;5051142;28;20201;-63
2022/05/22 05:55:39;;;;;;;8.40;2.80;;;11.50;99.90;;;;;;5051188;28;20173;-64
2022/05/22 05:58:05;;;;;;;6.10;2.20;;;11.60;99.90;;;;;;5051337;28;20217;-63
2022/05/22 06:00:31;;;;;;;9.53;2.43;;;11.60;99.90;;;;;;5051247;28;20584;-64
2022/05/22 06:02:57;;;;;;;10.67;2.50;;;11.70;99.90;;;;;;5051049;28;20169;-63
2022/05/22 06:05:23;;;;;;;7.53;2.80;;;11.70;99.90;;;;;;5050977;28;20180;-64
2022/05/22 06:07:51;;;;;;;9.93;2.77;;;11.70;99.90;;;;;;5050784;28;20184;-64
2022/05/22 06:10:18;;;;;;;6.97;2.57;;;11.80;99.90;;;;;;5050873;28;20283;-64
2022/05/22 06:12:46;;;;;;;5.80;2.10;;;11.80;99.90;;;;;;5050852;28;20222;-64
2022/05/22 06:15:12;;;;;;;13.67;2.50;;;11.90;99.90;;;;;;5050866;28;20228;-63
2022/05/22 06:17:44;;;;;;;9.57;2.60;;;11.90;99.90;;;;;;5050765;28;20290;-63
2022/05/22 06:20:12;;;;;;;7.03;2.50;;;12.10;99.90;;;;;;5050678;28;20169;-63
2022/05/22 06:22:38;;;;;;;10.75;2.40;;;12.20;99.90;;;;;;5050683;28;20176;-63
2022/05/22 06:25:08;;;;;;;9.73;2.73;;;12.40;99.90;;;;;;5050103;28;20534;-63
2022/05/22 06:27:34;;;;;;;8.27;2.55;;;12.60;99.90;;;;;;5050647;28;20251;-63
2022/05/22 06:30:00;;;;;;;9.23;2.55;;;12.90;99.90;;;;;;5050560;28;20212;-63
2022/05/22 06:32:26;;;;;;;7.67;2.43;;;13.20;99.90;;;;;;5050638;28;20216;-64
2022/05/22 06:34:51;;;;;;;5.97;2.45;;;13.40;99.90;;;;;;5050532;28;20197;-63
2022/05/22 06:37:20;;;;;;;11.38;2.67;;;13.50;99.90;;;;;;5050671;28;20654;-63
2022/05/22 06:39:53;;;;;;;11.15;2.50;;;13.60;99.90;;;;;;5050739;28;20180;-64
2022/05/22 06:42:30;;;;;;;6.80;2.47;;;13.70;99.90;;;;;;5050681;28;20176;-63
2022/05/22 06:45:03;;;;;;;7.20;2.42;;;13.80;99.90;;;;;;5050681;28;20194;-63
2022/05/22 06:47:31;;;;;;;7.07;2.33;;;14.00;99.90;;;;;;5050549;28;20181;-65
2022/05/22 06:50:03;;;;;;;5.15;2.22;;;14.10;99.90;;;;;;5050555;28;20177;-63
2022/05/22 06:52:30;;;;;;;8.70;2.50;;;14.30;99.90;;;;;;5032740;28;20189;-62
2022/05/22 06:54:56;;;;;;;14.18;2.60;;;14.40;99.90;;;;;;5050618;28;20181;-63
2022/05/22 06:57:22;;;;;;;12.10;2.58;;;14.50;99.90;;;;;;5032469;28;20523;-63
2022/05/22 06:59:48;;;;;;;7.80;2.35;;;14.60;99.90;;;;;;5050205;28;20221;-63
2022/05/22 07:02:15;;;;;;;7.50;2.30;;;14.80;99.90;;;;;;5050635;28;20217;-63
2022/05/22 07:04:41;;;;;;;8.25;2.35;;;15.00;99.90;;;;;;5050593;28;20181;-62
2022/05/22 07:07:07;;;;;;;7.72;2.10;;;15.10;99.90;;;;;;5050458;28;20169;-63
2022/05/22 07:09:34;;;;;;;10.15;2.67;;;15.40;99.90;;;;;;5050297;28;20185;-62
2022/05/22 07:12:00;;;;;;;8.60;2.33;;;15.60;99.90;;;;;;5050217;28;20284;-63
2022/05/22 07:14:28;;;;;;;7.30;2.45;;;15.70;99.90;;;;;;5050094;28;20534;-63
2022/05/22 07:16:54;;;;;;;6.13;2.10;;;15.80;99.90;;;;;;5050462;28;20185;-64
2022/05/22 07:19:20;;;;;;;8.15;1.92;;;15.80;99.90;;;;;;5050481;28;20184;-64
2022/05/22 07:21:47;;;;;;;5.95;1.83;;;15.90;99.90;;;;;;5050067;28;20295;-63
2022/05/22 07:24:13;;;;;;;6.10;1.77;;;16.00;99.90;;;;;;5050099;28;20654;-63
2022/05/22 07:26:39;;;;;;;9.15;1.83;;;16.20;99.90;;;;;;5050105;28;20173;-62
2022/05/22 07:29:04;;;;;;;9.70;1.85;;;16.10;99.90;;;;;;5032393;28;20181;-63
2022/05/22 07:31:32;;;;;;;7.30;2.25;;;16.30;99.90;;;;;;5050290;28;20213;-65
2022/05/22 07:33:59;;;;;;;10.27;2.10;;;16.40;99.90;;;;;;5050231;28;20264;-63
2022/05/22 07:36:25;;;;;;;8.40;1.90;;;16.40;99.90;;;;;;5033077;28;20239;-64
2022/05/22 07:38:51;;;;;;;5.32;1.75;;;16.30;99.90;;;;;;5053783;28;20208;-64
2022/05/22 07:41:17;;;;;;;8.15;1.85;;;16.20;99.90;;;;;;5053608;28;20187;-62
2022/05/22 07:43:43;;;;;;;6.65;1.55;;;16.10;99.90;;;;;;5053497;28;20643;-62
2022/05/22 07:46:11;;;;;;;9.73;1.75;;;16.00;99.90;;;;;;5053414;28;20211;-62
2022/05/22 07:48:37;;;;;;;5.25;1.50;;;16.00;99.90;;;;;;5053551;28;20177;-62
2022/05/22 07:51:04;;;;;;;10.57;2.15;;;15.90;99.90;;;;;;5053266;28;20556;-63
2022/05/22 07:53:31;;;;;;;8.52;1.70;;;15.90;99.90;;;;;;5053369;28;20177;-62
2022/05/22 07:55:57;;;;;;;9.52;1.92;;;15.90;99.90;;;;;;5053216;28;20169;-62
2022/05/22 07:58:24;;;;;;;7.75;1.50;;;15.90;99.90;;;;;;5053083;28;20253;-62
2022/05/22 08:00:51;;;;;;;7.65;1.60;;;16.00;99.90;;;;;;5053244;28;20653;-62
2022/05/22 08:03:17;;;;;;;9.70;1.63;;;16.10;99.90;;;;;;5053301;28;20586;-62
2022/05/22 08:05:43;;;;;;;8.43;1.95;;;16.30;99.90;;;;;;5053083;28;20174;-62
2022/05/22 08:08:09;;;;;;;5.10;1.60;;;16.30;99.90;;;;;;5053163;28;20188;-62
2022/05/22 08:10:36;;;;;;;5.78;1.58;;;16.50;99.90;;;;;;5052858;28;20233;-62
2022/05/22 08:13:04;;;;;;;4.43;1.17;;;16.70;99.90;;;;;;5053076;28;20181;-63
2022/05/22 08:15:32;;;;;;;5.88;1.20;;;16.80;99.90;;;;;;5053012;28;20165;-62
2022/05/22 08:17:59;;;;;;;5.30;1.60;;;16.90;99.90;;;;;;5052854;28;20215;-62
2022/05/22 08:20:27;;;;;;;5.63;1.20;;;17.10;99.90;;;;;;5052860;28;20169;-62
2022/05/22 08:22:55;;;;;;;7.25;1.33;;;17.20;99.90;;;;;;5035127;28;20174;-62
2022/05/22 08:25:22;;;;;;;4.93;1.20;;;17.30;99.90;;;;;;5052639;28;20185;-62
2022/05/22 08:27:48;;;;;;;6.85;1.55;;;17.60;99.90;;;;;;5052753;28;20174;-63
2022/05/22 08:30:16;;;;;;;4.18;1.27;;;18.10;99.90;;;;;;5052655;28;20176;-64
2022/05/22 08:32:44;;;;;;;5.75;1.45;;;18.60;99.90;;;;;;5052592;28;20182;-62
2022/05/22 08:35:12;;;;;;;3.00;0.93;;;18.90;99.90;;;;;;5052634;28;20238;-62
2022/05/22 08:37:38;;;;;;;4.10;1.23;;;19.20;99.90;;;;;;5052340;28;20549;-62
2022/05/22 08:40:05;;;;;;;3.70;0.90;;;19.00;99.90;;;;;;5052491;28;20165;-63
2022/05/22 08:43:06;;;;;;;6.72;1.00;;;18.80;99.90;;;;;;5034547;28;20581;-62
2022/05/22 08:45:44;;;;;;;5.20;1.05;;;19.20;99.90;;;;;;5045520;28;20254;-62
2022/05/22 08:48:19;;;;;;;5.22;1.20;;;19.50;99.90;;;;;;5051581;28;20165;-63
2022/05/22 08:50:47;;;;;;;5.88;1.35;;;19.60;99.90;;;;;;5052317;28;20234;-63
2022/05/22 08:53:25;;;;;;;4.18;1.30;;;19.50;99.90;;;;;;5052361;28;20329;-62
2022/05/22 08:59:05;;;;;;;2.65;0.95;;;18.90;99.90;;;;;;5051901;28;20247;-62
2022/05/22 09:01:46;;;;;;;7.43;1.30;;;19.10;99.90;;;;;;5008967;28;20206;-62
2022/05/22 09:04:17;;;;;;;4.97;1.05;;;19.30;99.90;;;;;;5051971;28;20184;-63
2022/05/22 09:06:56;;;;;;;4.20;1.10;;;19.20;99.90;;;;;;5052015;28;20169;-63
2022/05/22 09:09:25;;;;;;;2.35;1.05;;;18.90;99.90;;;;;;5051806;28;20165;-63
2022/05/22 09:12:00;;;;;;;2.17;0.65;;;18.90;99.90;;;;;;5051738;28;20299;-63
2022/05/22 09:14:42;;;;;;;3.38;0.80;;;18.80;99.90;;;;;;5051629;28;20567;-63
2022/05/22 09:17:18;;;;;;;2.88;0.80;;;18.80;99.90;;;;;;5051626;28;20188;-63
2022/05/22 09:19:50;;;;;;;6.45;0.85;;;19.00;99.90;;;;;;5051745;28;20255;-64
2022/05/22 09:22:31;;;;;;;3.03;0.95;;;18.90;99.90;;;;;;5051641;28;20180;-63
2022/05/22 09:25:23;;;;;;;3.65;0.80;;;19.10;99.90;;;;;;5051568;28;20204;-63
2022/05/22 09:28:11;;;;;;;1.35;0.75;;;19.30;99.90;;;;;;5051307;28;20178;-63
2022/05/22 09:30:50;;;;;;;2.58;0.70;;;19.30;99.90;;;;;;5051448;28;20232;-63
2022/05/22 09:33:33;;;;;;;5.15;1.02;;;19.20;99.90;;;;;;5051467;28;20169;-63
2022/05/22 09:36:22;;;;;;;5.10;0.93;;;19.20;99.90;;;;;;5051426;28;20164;-63
2022/05/22 09:39:02;;;;;;;5.28;0.80;;;19.20;99.90;;;;;;5051389;28;20173;-63
2022/05/22 09:41:46;;;;;;;3.60;0.95;;;19.30;99.90;;;;;;5051070;28;20169;-63
2022/05/22 09:44:17;;;;;;;4.10;1.00;;;19.40;99.90;;;;;;5051347;28;20204;-63
2022/05/22 09:47:11;;;;;;;6.30;1.25;;;19.30;99.90;;;;;;5051220;28;20271;-63
2022/05/22 09:50:10;;;;;;;4.75;1.10;;;19.50;99.90;;;;;;5051170;28;20275;-63
2022/05/22 09:52:48;;;;;;;6.63;1.10;;;19.50;99.90;;;;;;5050959;28;20188;-63
2022/05/22 09:55:20;;;;;;;2.45;0.85;;;19.40;99.90;;;;;;5051098;28;20179;-63
2022/05/22 09:57:54;;;;;;;5.43;1.20;;;19.40;99.90;;;;;;5050903;28;20181;-63
2022/05/22 10:00:28;;;;;;;6.95;1.20;;;19.80;99.90;;;;;;5050713;28;20172;-64
2022/05/22 10:03:13;;;;;;;9.05;1.30;;;19.70;99.90;;;;;;5050951;28;20168;-63
2022/05/22 10:06:06;;;;;;;5.07;0.93;;;19.70;99.90;;;;;;5051005;28;20182;-63
2022/05/22 10:08:43;;;;;;;3.83;1.00;;;20.00;99.90;;;;;;5050948;28;20196;-63
2022/05/22 10:11:39;;;;;;;3.72;1.02;;;20.20;99.90;;;;;;5050817;28;20205;-63
2022/05/22 10:14:16;;;;;;;6.03;0.98;;;20.00;99.90;;;;;;5004249;28;20410;-63
2022/05/22 10:16:54;;;;;;;4.60;1.40;;;20.30;99.90;;;;;;5050633;28;20160;-63
2022/05/22 10:19:19;;;;;;;2.20;1.00;;;20.70;99.90;;;;;;5050805;28;20169;-64
2022/05/22 10:22:00;;;;;;;4.78;1.80;;;21.40;99.90;;;;;;5050727;28;20207;-63
2022/05/22 10:24:51;;;;;;;5.95;1.17;;;21.50;99.90;;;;;;5050682;28;20215;-64
2022/05/22 10:27:25;;;;;;;7.10;1.48;;;21.70;99.90;;;;;;5050964;28;20165;-63
2022/05/22 10:30:00;;;;;;;6.88;1.30;;;21.80;99.90;;;;;;5050942;28;20179;-63
2022/05/22 10:32:32;;;;;;;5.78;1.23;;;21.80;99.90;;;;;;5050773;28;20204;-63
2022/05/22 10:35:01;;;;;;;4.53;1.08;;;22.00;99.90;;;;;;5051170;28;20217;-65
2022/05/22 10:37:47;;;;;;;5.90;1.02;;;22.60;99.90;;;;;;5050926;28;20246;-64
2022/05/22 10:40:19;;;;;;;3.97;1.00;;;22.40;99.90;;;;;;5050659;28;20642;-64
2022/05/22 10:42:50;;;;;;;7.75;1.10;;;22.60;99.90;;;;;;5050641;28;20540;-63
2022/05/22 10:45:34;;;;;;;3.42;0.95;;;22.20;99.90;;;;;;5050720;28;20692;-64
2022/05/22 10:48:09;;;;;;;3.35;0.80;;;21.80;99.90;;;;;;5050804;28;20669;-64
2022/05/22 10:50:36;;;;;;;5.40;1.10;;;21.90;99.90;;;;;;5050474;28;20193;-64
2022/05/22 10:53:02;;;;;;;3.75;0.93;;;22.00;99.90;;;;;;5050473;28;20197;-64
2022/05/22 10:55:28;;;;;;;4.15;1.23;;;21.80;99.90;;;;;;5050530;28;20165;-64
2022/05/22 10:58:00;;;;;;;4.80;1.02;;;22.20;99.90;;;;;;5050429;28;20201;-62
2022/05/22 11:00:27;;;;;;;2.95;0.73;;;23.10;99.90;;;;;;5050445;28;20513;-63
2022/05/22 11:02:53;;;;;;;2.80;0.75;;;22.80;99.90;;;;;;5050606;28;20179;-63
2022/05/22 11:05:27;;;;;;;3.58;0.80;;;22.90;99.90;;;;;;5050470;28;20166;-63
2022/05/22 11:07:54;;;;;;;3.95;0.98;;;23.30;99.90;;;;;;5050553;28;20161;-64
2022/05/22 11:10:33;;;;;;;2.60;0.57;;;23.30;99.90;;;;;;5050458;28;20192;-66
2022/05/22 11:13:03;;;;;;;3.50;0.50;;;23.20;99.90;;;;;;5053610;28;20185;-63
2022/05/22 11:15:32;;;;;;;1.98;0.60;;;23.60;99.90;;;;;;5054233;28;20674;-64
2022/05/22 11:18:09;;;;;;;3.13;0.77;;;24.00;99.90;;;;;;5054209;28;20173;-64
2022/05/22 11:20:43;;;;;;;2.38;0.60;;;24.20;99.90;;;;;;5054403;28;20177;-64
2022/05/22 11:23:14;;;;;;;2.05;0.63;;;25.00;99.90;;;;;;5054199;28;20178;-64
2022/05/22 11:26:14;;;;;;;2.70;0.60;;;25.60;99.90;;;;;;5054121;28;20640;-64
2022/05/22 11:28:56;;;;;;;1.27;0.52;;;25.60;99.90;;;;;;5053863;28;20280;-64
2022/05/22 11:31:54;;;;;;;1.35;0.55;;;25.40;99.90;;;;;;5053859;28;20567;-63
2022/05/22 11:34:37;;;;;;;2.15;0.70;;;25.00;99.90;;;;;;5053918;28;20250;-64
2022/05/22 11:37:35;;;;;;;4.53;0.80;;;26.20;99.90;;;;;;5053799;28;20662;-65
2022/05/22 11:40:37;;;;;;;0.90;0.40;;;26.10;99.90;;;;;;5053881;28;20188;-64
2022/05/22 11:43:33;;;;;;;1.05;0.43;;;26.50;99.90;;;;;;5053627;28;20240;-65
2022/05/22 11:46:20;;;;;;;1.35;0.60;;;27.50;99.90;;;;;;5053804;28;20169;-63
2022/05/22 11:49:10;;;;;;;1.52;0.40;;;26.90;99.90;;;;;;5053654;28;20175;-64
2022/05/22 11:51:44;;;;;;;2.20;0.60;;;27.10;99.90;;;;;;5053561;28;20216;-64
2022/05/22 11:54:34;;;;;;;3.63;0.70;;;27.20;99.90;;;;;;5053489;28;20188;-64
2022/05/22 11:57:15;;;;;;;2.80;0.80;;;26.70;99.90;;;;;;5053394;28;20177;-63
2022/05/22 11:59:54;;;;;;;3.03;0.50;;;26.80;99.90;;;;;;5053123;28;20270;-63
2022/05/22 12:02:43;;;;;;;1.83;0.60;;;26.20;99.90;;;;;;5053381;28;20255;-63
2022/05/22 12:05:26;;;;;;;1.17;0.65;;;25.20;99.90;;;;;;5039842;28;20246;-63
2022/05/22 12:08:00;;;;;;;1.63;0.60;;;25.90;99.90;;;;;;5053225;28;20170;-65
2022/05/22 12:10:35;;;;;;;3.28;0.80;;;26.70;99.90;;;;;;5053018;28;20168;-65
2022/05/22 12:13:27;;;;;;;3.25;0.93;;;27.20;99.90;;;;;;5053064;28;20185;-65
2022/05/22 12:16:08;;;;;;;2.17;0.60;;;26.90;99.90;;;;;;5052834;28;20519;-64
2022/05/22 12:18:58;;;;;;;1.55;0.60;;;26.60;99.90;;;;;;5052749;28;20685;-64
2022/05/22 12:21:34;;;;;;;2.83;0.80;;;26.30;99.90;;;;;;5052985;28;20268;-65
2022/05/22 12:24:27;;;;;;;2.67;0.75;;;25.70;99.90;;;;;;5051813;28;20171;-64
2022/05/22 12:26:53;;;;;;;3.05;0.73;;;24.30;99.90;;;;;;5052881;28;20252;-63
2022/05/22 12:29:33;;;;;;;3.50;0.70;;;24.40;99.90;;;;;;5052650;28;20639;-64
2022/05/22 12:32:18;;;;;;;1.52;0.50;;;25.40;99.90;;;;;;5052815;28;20677;-65
2022/05/22 12:34:48;;;;;;;2.50;0.60;;;25.60;99.90;;;;;;5052903;28;20307;-64
2022/05/22 12:37:38;;;;;;;3.15;0.55;;;25.20;99.90;;;;;;5052738;28;20192;-64
2022/05/22 12:40:22;;;;;;;2.30;0.50;;;25.20;99.90;;;;;;5052614;28;20215;-65
2022/05/22 12:42:55;;;;;;;2.30;0.70;;;25.00;99.90;;;;;;5052432;28;20180;-65
2022/05/22 12:45:23;;;;;;;2.03;0.55;;;24.00;99.90;;;;;;5052448;28;20283;-63
2022/05/22 12:47:51;;;;;;;1.35;0.60;;;24.20;99.90;;;;;;5034417;28;20169;-64
2022/05/22 12:50:43;;;;;;;2.67;0.88;;;23.90;99.90;;;;;;5034677;28;20177;-64
2022/05/22 12:53:36;;;;;;;5.07;0.70;;;23.80;99.90;;;;;;5052444;28;20647;-64
2022/05/22 12:56:18;;;;;;;2.35;0.70;;;24.00;99.90;;;;;;5048382;28;20181;-66
2022/05/22 12:58:51;;;;;;;3.25;0.80;;;24.30;99.90;;;;;;5052223;28;20289;-65
2022/05/22 13:01:34;;;;;;;3.13;0.60;;;25.00;99.90;;;;;;5052071;28;20608;-64
2022/05/22 13:04:06;;;;;;;2.03;0.60;;;25.80;99.90;;;;;;5052180;28;20287;-65
2022/05/22 13:06:55;;;;;;;2.80;0.50;;;26.60;99.90;;;;;;5052015;28;20176;-64
2022/05/22 13:09:35;;;;;;;2.38;0.60;;;26.60;99.90;;;;;;5051973;28;20212;-65
2022/05/22 13:12:09;;;;;;;3.20;0.60;;;27.20;99.90;;;;;;5051984;28;20355;-66
2022/05/22 13:14:34;;;;;;;1.65;0.60;;;27.20;99.90;;;;;;5052121;28;20157;-65
2022/05/22 13:17:00;;;;;;;3.58;0.57;;;27.70;99.90;;;;;;5051926;28;20169;-65
2022/05/22 13:19:28;;;;;;;2.28;0.75;;;28.10;99.90;;;;;;5052076;28;20256;-65
2022/05/22 13:21:56;;;;;;;3.28;0.73;;;27.10;99.90;;;;;;5051790;28;20220;-65
2022/05/22 13:24:30;;;;;;;2.88;0.60;;;28.60;99.90;;;;;;5051754;28;20173;-65